createdAt,value
2019-05-26T00:00:28.155Z,17.34
2019-05-26T00:05:33.893Z,17.34
2019-05-26T00:10:39.210Z,17.25
2019-05-26T00:15:45.115Z,17.25
2019-05-26T00:20:50.338Z,16.68
2019-05-26T00:25:55.987Z,16.82
2019-05-26T00:31:01.436Z,16.71
2019-05-26T00:36:06.957Z,16.71
2019-05-26T00:41:12.872Z,16.60
2019-05-26T00:46:18.481Z,16.97
2019-05-26T00:51:23.889Z,16.67
2019-05-26T00:56:29.565Z,16.74
2019-05-26T01:01:34.971Z,16.66
2019-05-26T01:06:40.628Z,16.66
2019-05-26T01:11:45.919Z,16.34
2019-05-26T01:16:51.169Z,16.17
2019-05-26T01:21:56.549Z,16.17
2019-05-26T01:27:02.326Z,16.15
2019-05-26T01:32:07.621Z,15.98
2019-05-26T01:37:13.274Z,15.98
2019-05-26T01:42:18.645Z,16.02
2019-05-26T01:47:24.032Z,16.05
2019-05-26T01:52:29.311Z,15.88
2019-05-26T01:57:34.743Z,15.75
2019-05-26T02:02:40.290Z,15.75
2019-05-26T02:07:45.915Z,15.99
2019-05-26T02:12:51.224Z,15.99
2019-05-26T02:17:56.429Z,15.89
2019-05-26T02:23:01.738Z,15.94
2019-05-26T02:28:06.977Z,15.76
2019-05-26T02:33:12.268Z,15.77
2019-05-26T02:38:19.008Z,15.77
2019-05-26T02:43:24.791Z,15.38
2019-05-26T02:48:30.081Z,15.23
2019-05-26T02:53:35.386Z,15.23
2019-05-26T02:58:40.622Z,15.21
2019-05-26T03:03:46.546Z,15.21
2019-05-26T03:08:53.842Z,15.50
2019-05-26T03:14:01.988Z,15.35
2019-05-26T03:19:07.597Z,15.35
2019-05-26T03:24:15.846Z,15.22
2019-05-26T03:29:21.248Z,15.01
2019-05-26T03:34:26.863Z,15.19
2019-05-26T03:39:44.727Z,15.19
2019-05-26T03:44:39.839Z,14.95
2019-05-26T03:49:45.100Z,15.04
2019-05-26T03:54:51.326Z,15.04
2019-05-26T03:59:56.563Z,14.87
2019-05-26T04:05:02.372Z,14.66
2019-05-26T04:10:08.778Z,14.84
2019-05-26T04:15:14.976Z,14.81
2019-05-26T04:20:20.595Z,14.39
2019-05-26T04:25:26.140Z,14.31
2019-05-26T04:30:31.563Z,14.65
2019-05-26T04:35:37.012Z,14.20
2019-05-26T04:40:42.559Z,14.20
2019-05-26T04:45:48.052Z,14.61
2019-05-26T04:50:53.355Z,14.74
2019-05-26T04:55:58.600Z,14.78
2019-05-26T05:01:03.907Z,14.78
2019-05-26T05:06:09.163Z,14.63
2019-05-26T05:11:14.491Z,14.63
2019-05-26T05:16:19.744Z,14.92
2019-05-26T05:21:25.089Z,14.87
2019-05-26T05:26:30.721Z,14.87
2019-05-26T05:31:36.241Z,14.82
2019-05-26T05:36:41.690Z,14.36
2019-05-26T05:41:46.940Z,14.36
2019-05-26T05:46:52.236Z,14.66
2019-05-26T05:51:57.574Z,14.76
2019-05-26T05:57:03.054Z,14.88
2019-05-26T06:02:08.615Z,14.82
2019-05-26T06:07:14.200Z,14.67
2019-05-26T06:12:19.677Z,14.67
2019-05-26T06:17:24.914Z,14.74
2019-05-26T06:22:30.589Z,14.94
2019-05-26T06:27:36.246Z,14.94
2019-05-26T06:32:41.676Z,15.44
2019-05-26T06:37:46.930Z,15.14
2019-05-26T06:42:52.235Z,15.14
2019-05-26T06:47:57.873Z,15.36
2019-05-26T06:53:04.329Z,15.36
2019-05-26T06:58:09.646Z,15.45
2019-05-26T07:03:15.196Z,15.39
2019-05-26T07:08:20.600Z,15.41
2019-05-26T07:13:26.946Z,15.57
2019-05-26T07:18:32.256Z,15.79
2019-05-26T07:23:37.526Z,15.79
2019-05-26T07:28:43.251Z,15.98
2019-05-26T07:33:48.737Z,16.29
2019-05-26T07:38:54.158Z,16.29
2019-05-26T07:43:59.426Z,16.38
2019-05-26T07:49:05.231Z,16.43
2019-05-26T07:54:24.553Z,16.57
2019-05-26T07:59:17.691Z,16.71
2019-05-26T08:04:23.049Z,16.71
2019-05-26T08:09:28.749Z,16.96
2019-05-26T08:14:34.036Z,16.96
2019-05-26T08:19:39.257Z,17.27
2019-05-26T08:24:45.822Z,17.08
2019-05-26T08:29:51.273Z,17.08
2019-05-26T08:34:56.538Z,17.34
2019-05-26T08:40:19.998Z,17.44
2019-05-26T08:45:25.595Z,17.47
2019-05-26T08:50:34.160Z,17.47
2019-05-26T08:55:38.043Z,17.47
2019-05-26T09:00:43.496Z,17.61
2019-05-26T09:05:49.267Z,17.84
2019-05-26T09:10:54.569Z,17.86
2019-05-26T09:15:59.804Z,17.87
2019-05-26T09:21:05.506Z,17.87
2019-05-26T09:26:10.822Z,17.95
2019-05-26T09:31:16.122Z,18.19
2019-05-26T09:36:21.763Z,18.19
2019-05-26T09:41:27.605Z,18.38
2019-05-26T09:46:32.890Z,18.29
2019-05-26T09:51:38.130Z,18.82
2019-05-26T09:56:43.398Z,18.93
2019-05-26T10:01:48.719Z,18.79
2019-05-26T10:06:54.134Z,18.99
2019-05-26T10:11:59.587Z,19.17
2019-05-26T10:17:05.047Z,19.17
2019-05-26T10:22:10.327Z,19.66
2019-05-26T10:27:15.539Z,19.71
2019-05-26T10:32:20.972Z,19.71
2019-05-26T10:37:26.459Z,20.25
2019-05-26T10:42:31.836Z,20.29
2019-05-26T10:47:37.659Z,20.53
2019-05-26T10:52:43.517Z,20.53
2019-05-26T10:57:48.826Z,20.54
2019-05-26T11:02:54.359Z,20.51
2019-05-26T11:08:00.241Z,20.56
2019-05-26T11:13:05.902Z,20.56
2019-05-26T11:18:11.359Z,21.04
2019-05-26T11:23:16.590Z,21.31
2019-05-26T11:28:21.860Z,21.28
2019-05-26T11:33:27.095Z,21.28
2019-05-26T11:38:33.833Z,21.72
2019-05-26T11:43:39.628Z,21.60
2019-05-26T11:48:45.987Z,21.47
2019-05-26T11:53:51.532Z,21.44
2019-05-26T11:58:56.837Z,21.44
2019-05-26T12:04:02.372Z,21.83
2019-05-26T12:09:09.400Z,21.83
2019-05-26T12:14:14.758Z,21.72
2019-05-26T12:19:20.161Z,21.58
2019-05-26T12:24:25.501Z,21.86
2019-05-26T12:29:31.197Z,21.72
2019-05-26T12:34:36.588Z,21.72
2019-05-26T12:39:42.358Z,22.13
2019-05-26T12:44:49.907Z,22.13
2019-05-26T12:49:54.642Z,22.05
2019-05-26T12:55:00.128Z,22.22
2019-05-26T13:00:09.919Z,22.22
2019-05-26T13:05:16.606Z,22.36
2019-05-26T13:10:22.363Z,22.13
2019-05-26T13:15:27.801Z,22.18
2019-05-26T13:20:33.431Z,22.10
2019-05-26T13:25:38.771Z,22.10
2019-05-26T13:30:44.100Z,22.55
2019-05-26T13:35:49.815Z,22.55
2019-05-26T13:40:55.285Z,22.42
2019-05-26T13:46:00.705Z,22.39
2019-05-26T13:51:05.997Z,22.37
2019-05-26T13:56:11.531Z,22.37
2019-05-26T14:01:18.171Z,22.25
2019-05-26T14:06:23.542Z,22.15
2019-05-26T14:11:28.776Z,22.32
2019-05-26T14:16:35.797Z,22.45
2019-05-26T14:21:41.120Z,22.57
2019-05-26T14:26:46.517Z,22.19
2019-05-26T14:31:52.989Z,22.29
2019-05-26T14:36:58.390Z,22.30
2019-05-26T14:42:03.688Z,22.30
2019-05-26T14:47:09.011Z,22.37
2019-05-26T14:52:14.291Z,22.37
2019-05-26T14:57:20.086Z,22.27
2019-05-26T15:02:25.487Z,22.13
2019-05-26T15:07:31.061Z,22.29
2019-05-26T15:12:36.378Z,22.56
2019-05-26T15:17:41.834Z,22.56
2019-05-26T15:22:47.075Z,22.92
2019-05-26T15:27:52.660Z,22.89
2019-05-26T15:32:58.444Z,22.89
2019-05-26T15:38:04.500Z,23.38
2019-05-26T15:43:10.070Z,23.43
2019-05-26T15:48:15.387Z,23.35
2019-05-26T15:53:21.943Z,23.49
2019-05-26T15:58:27.458Z,23.49
2019-05-26T16:03:33.145Z,23.23
2019-05-26T16:08:38.868Z,23.39
2019-05-26T16:13:44.782Z,22.97
2019-05-26T16:18:50.339Z,22.90
2019-05-26T16:23:56.200Z,22.91
2019-05-26T16:29:01.507Z,22.67
2019-05-26T16:34:08.424Z,22.54
2019-05-26T16:39:13.866Z,22.54
2019-05-26T16:44:20.083Z,22.44
2019-05-26T16:49:25.466Z,22.42
2019-05-26T16:54:31.096Z,22.65
2019-05-26T16:59:36.864Z,22.65
2019-05-26T17:04:42.355Z,22.47
2019-05-26T17:09:47.845Z,22.49
2019-05-26T17:14:53.976Z,22.49
2019-05-26T17:19:59.343Z,22.44
2019-05-26T17:25:06.582Z,22.48
2019-05-26T17:30:12.529Z,22.40
2019-05-26T17:35:18.245Z,22.40
2019-05-26T17:40:24.405Z,22.33
2019-05-26T17:45:29.641Z,22.34
2019-05-26T17:50:34.993Z,22.13
2019-05-26T17:55:41.412Z,22.06
2019-05-26T18:00:47.149Z,21.95
2019-05-26T18:05:52.714Z,21.86
2019-05-26T18:10:58.063Z,21.76
2019-05-26T18:16:03.427Z,21.72
2019-05-26T18:21:09.093Z,21.72
2019-05-26T18:26:14.760Z,21.63
2019-05-26T18:31:20.151Z,21.63
2019-05-26T18:36:25.675Z,21.63
2019-05-26T18:41:31.094Z,21.42
2019-05-26T18:46:37.386Z,21.35
2019-05-26T18:51:42.713Z,21.35
2019-05-26T18:56:48.083Z,21.24
2019-05-26T19:01:53.655Z,21.24
2019-05-26T19:06:58.991Z,21.06
2019-05-26T19:12:04.723Z,20.98
2019-05-26T19:17:10.679Z,20.98
2019-05-26T19:22:16.367Z,20.88
2019-05-26T19:27:21.572Z,20.72
2019-05-26T19:32:26.970Z,20.76
2019-05-26T19:37:33.223Z,20.76
2019-05-26T19:42:38.898Z,20.55
2019-05-26T19:47:44.456Z,20.48
2019-05-26T19:52:50.317Z,20.33
2019-05-26T19:57:55.939Z,20.29
2019-05-26T20:03:01.325Z,20.29
2019-05-26T20:08:07.920Z,20.18
2019-05-26T20:13:13.221Z,20.22
2019-05-26T20:18:18.673Z,20.10
2019-05-26T20:23:24.134Z,20.04
2019-05-26T20:28:29.781Z,20.04
2019-05-26T20:33:35.190Z,20.15
2019-05-26T20:38:40.963Z,20.15
2019-05-26T20:43:46.744Z,20.05
2019-05-26T20:48:52.119Z,19.92
2019-05-26T20:53:57.850Z,19.92
2019-05-26T20:59:03.282Z,19.81
2019-05-26T21:04:09.764Z,19.76
2019-05-26T21:09:15.490Z,19.76
2019-05-26T21:14:21.235Z,19.49
2019-05-26T21:19:26.618Z,19.55
2019-05-26T21:24:32.301Z,19.29
2019-05-26T21:29:37.837Z,19.31
2019-05-26T21:34:43.426Z,19.31
2019-05-26T21:39:49.107Z,19.36
2019-05-26T21:44:54.466Z,19.26
2019-05-26T21:49:59.814Z,19.25
2019-05-26T21:55:07.230Z,19.25
2019-05-26T22:00:18.647Z,19.20
2019-05-26T22:05:25.751Z,19.10
2019-05-26T22:10:31.458Z,19.09
2019-05-26T22:15:37.935Z,19.02
2019-05-26T22:20:43.563Z,19.02
2019-05-26T22:25:49.327Z,18.68
2019-05-26T22:30:54.786Z,18.68
2019-05-26T22:36:00.273Z,18.78
2019-05-26T22:41:05.874Z,18.78
2019-05-26T22:46:11.390Z,18.69
2019-05-26T22:51:18.305Z,18.66
2019-05-26T22:56:23.903Z,18.66
2019-05-26T23:01:29.524Z,18.60
2019-05-26T23:06:34.834Z,18.54
2019-05-26T23:11:40.141Z,18.54
2019-05-26T23:16:45.842Z,18.50
2019-05-26T23:21:51.451Z,18.47
2019-05-26T23:26:56.668Z,18.34
2019-05-26T23:32:02.184Z,18.34
2019-05-26T23:37:07.531Z,18.28
2019-05-26T23:42:12.855Z,18.06
2019-05-26T23:47:18.159Z,18.06
2019-05-26T23:52:23.735Z,17.53
2019-05-26T23:57:29.004Z,17.61
